createdAt,value
2018-07-20T00:00:08.753Z,14.32
2018-07-20T00:02:48.881Z,14.22
2018-07-20T00:05:35.020Z,14.14
2018-07-20T00:08:13.199Z,14.25
2018-07-20T00:10:49.612Z,14.39
2018-07-20T00:16:09.997Z,14.50
2018-07-20T00:18:39.605Z,14.48
2018-07-20T00:21:10.241Z,14.48
2018-07-20T00:29:44.944Z,14.47
2018-07-20T00:32:17.183Z,14.39
2018-07-20T00:34:49.658Z,14.36
2018-07-20T00:37:30.965Z,14.34
2018-07-20T00:40:01.243Z,14.25
2018-07-20T00:42:30.698Z,14.23
2018-07-20T00:45:00.187Z,14.15
2018-07-20T00:47:29.598Z,14.12
2018-07-20T00:49:58.677Z,14.09
2018-07-20T00:52:28.048Z,13.96
2018-07-20T00:54:57.462Z,13.96
2018-07-20T00:57:26.786Z,13.93
2018-07-20T00:59:56.178Z,13.84
2018-07-20T01:02:25.543Z,13.53
2018-07-20T01:04:55.110Z,13.44
2018-07-20T01:07:24.478Z,13.41
2018-07-20T01:09:53.821Z,13.45
2018-07-20T01:12:23.218Z,13.42
2018-07-20T01:14:52.714Z,13.33
2018-07-20T01:17:22.102Z,13.28
2018-07-20T01:19:51.497Z,13.21
2018-07-20T01:22:20.902Z,12.97
2018-07-20T01:24:50.250Z,13.04
2018-07-20T01:27:19.420Z,13.10
2018-07-20T01:29:48.799Z,13.23
2018-07-20T01:32:18.318Z,13.23
2018-07-20T01:34:47.725Z,13.17
2018-07-20T01:37:17.109Z,13.23
2018-07-20T01:39:46.538Z,13.23
2018-07-20T01:42:15.967Z,13.28
2018-07-20T01:44:45.767Z,13.40
2018-07-20T01:47:15.137Z,13.44
2018-07-20T01:49:44.469Z,13.35
2018-07-20T01:52:13.856Z,13.37
2018-07-20T01:54:43.251Z,13.38
2018-07-20T01:57:12.365Z,13.35
2018-07-20T01:59:41.762Z,13.34
2018-07-20T02:02:11.886Z,13.31
2018-07-20T02:04:41.280Z,13.27
2018-07-20T02:07:10.597Z,13.25
2018-07-20T02:09:40.007Z,13.26
2018-07-20T02:12:09.665Z,13.25
2018-07-20T02:14:39.077Z,13.25
2018-07-20T02:17:09.144Z,13.21
2018-07-20T02:19:38.469Z,13.11
2018-07-20T02:22:07.913Z,13.13
2018-07-20T02:24:37.326Z,13.22
2018-07-20T02:27:06.666Z,13.33
2018-07-20T02:29:36.035Z,13.38
2018-07-20T02:32:05.990Z,13.44
2018-07-20T02:34:35.338Z,13.55
2018-07-20T02:37:04.779Z,13.57
2018-07-20T02:39:34.205Z,13.61
2018-07-20T02:42:03.569Z,13.63
2018-07-20T02:44:32.722Z,13.69
2018-07-20T02:47:02.114Z,13.74
2018-07-20T02:49:31.462Z,13.70
2018-07-20T02:52:01.018Z,13.71
2018-07-20T02:54:30.449Z,13.68
2018-07-20T02:56:59.822Z,13.63
2018-07-20T03:02:32.716Z,13.59
2018-07-20T03:05:08.126Z,13.62
2018-07-20T03:07:37.594Z,13.70
2018-07-20T03:13:02.799Z,13.57
2018-07-20T03:15:41.846Z,13.66
2018-07-20T03:18:14.950Z,13.59
2018-07-20T03:20:44.411Z,13.60
2018-07-20T03:23:13.830Z,13.53
2018-07-20T03:25:43.213Z,13.51
2018-07-20T03:28:12.701Z,13.55
2018-07-20T03:30:42.079Z,13.63
2018-07-20T03:33:54.389Z,13.60
2018-07-20T03:36:23.741Z,13.68
2018-07-20T03:38:53.169Z,13.58
2018-07-20T03:41:22.522Z,13.64
2018-07-20T03:45:09.895Z,13.62
2018-07-20T03:47:39.283Z,13.71
2018-07-20T03:50:08.660Z,13.65
2018-07-20T03:55:46.266Z,13.54
2018-07-20T03:58:15.658Z,13.63
2018-07-20T04:00:45.027Z,13.72
2018-07-20T04:03:14.768Z,13.63
2018-07-20T04:05:44.756Z,13.69
2018-07-20T04:08:15.297Z,13.68
2018-07-20T04:10:44.986Z,13.64
2018-07-20T04:13:14.415Z,13.65
2018-07-20T04:15:44.061Z,13.72
2018-07-20T04:18:14.679Z,13.72
2018-07-20T04:22:13.483Z,13.86
2018-07-20T04:24:43.126Z,14.09
2018-07-20T04:27:12.239Z,14.08
2018-07-20T04:29:41.618Z,14.17
2018-07-20T04:32:11.069Z,14.19
2018-07-20T04:34:40.835Z,14.17
2018-07-20T04:37:11.222Z,14.12
2018-07-20T04:39:40.674Z,14.21
2018-07-20T04:42:10.222Z,14.28
2018-07-20T04:44:39.724Z,14.39
2018-07-20T04:47:09.094Z,14.38
2018-07-20T04:49:38.833Z,14.46
2018-07-20T04:52:08.213Z,14.59
2018-07-20T04:54:38.623Z,14.51
2018-07-20T04:57:08.244Z,14.54
2018-07-20T04:59:38.297Z,14.64
2018-07-20T05:02:08.758Z,14.64
2018-07-20T05:04:38.106Z,14.57
2018-07-20T05:07:08.267Z,14.55
2018-07-20T05:09:37.607Z,14.58
2018-07-20T05:12:08.847Z,14.56
2018-07-20T05:14:41.042Z,14.72
2018-07-20T05:17:10.538Z,14.62
2018-07-20T05:19:40.759Z,14.73
2018-07-20T05:22:10.785Z,14.81
2018-07-20T05:24:40.206Z,14.81
2018-07-20T05:27:09.581Z,14.92
2018-07-20T05:29:39.657Z,14.91
2018-07-20T05:32:09.953Z,15.12
2018-07-20T05:34:40.370Z,15.13
2018-07-20T05:37:10.310Z,15.18
2018-07-20T05:39:39.936Z,15.10
2018-07-20T05:42:09.402Z,15.27
2018-07-20T05:44:38.823Z,15.30
2018-07-20T05:47:08.447Z,15.36
2018-07-20T05:49:38.314Z,15.42
2018-07-20T05:52:07.779Z,15.52
2018-07-20T05:54:37.125Z,15.54
2018-07-20T05:57:06.546Z,15.65
2018-07-20T05:59:38.170Z,15.75
2018-07-20T06:02:07.539Z,15.97
2018-07-20T06:04:36.939Z,15.98
2018-07-20T06:07:07.126Z,15.96
2018-07-20T06:09:36.569Z,16.10
2018-07-20T06:12:07.350Z,16.19
2018-07-20T06:14:37.690Z,16.24
2018-07-20T06:17:07.414Z,16.28
2018-07-20T06:19:37.686Z,16.09
2018-07-20T06:22:07.589Z,16.27
2018-07-20T06:24:36.776Z,16.40
2018-07-20T06:27:06.173Z,16.50
2018-07-20T06:29:35.612Z,16.52
2018-07-20T06:32:04.976Z,16.53
2018-07-20T06:34:34.379Z,16.67
2018-07-20T06:37:04.168Z,16.78
2018-07-20T06:39:34.525Z,16.81
2018-07-20T06:42:05.526Z,16.85
2018-07-20T06:44:35.959Z,16.86
2018-07-20T06:47:06.098Z,16.99
2018-07-20T06:49:37.138Z,17.10
2018-07-20T06:52:06.574Z,17.12
2018-07-20T06:54:39.857Z,17.16
2018-07-20T06:57:09.969Z,17.12
2018-07-20T06:59:39.740Z,17.28
2018-07-20T07:02:10.445Z,17.29
2018-07-20T07:04:39.830Z,17.45
2018-07-20T07:07:09.641Z,17.58
2018-07-20T07:09:40.590Z,17.77
2018-07-20T07:12:09.994Z,17.81
2018-07-20T07:14:39.353Z,17.86
2018-07-20T07:17:09.062Z,17.77
2018-07-20T07:19:38.574Z,17.90
2018-07-20T07:22:08.135Z,18.06
2018-07-20T07:24:37.777Z,18.10
2018-07-20T07:27:08.641Z,18.05
2018-07-20T07:29:38.157Z,17.96
2018-07-20T07:32:09.022Z,18.01
2018-07-20T07:34:38.503Z,18.31
2018-07-20T07:37:07.842Z,18.36
2018-07-20T07:39:37.206Z,18.23
2018-07-20T07:42:07.299Z,18.20
2018-07-20T07:44:37.326Z,18.46
2018-07-20T07:47:06.706Z,18.52
2018-07-20T07:49:36.194Z,18.70
2018-07-20T07:52:05.689Z,18.63
2018-07-20T07:54:40.070Z,18.97
2018-07-20T07:57:09.611Z,19.08
2018-07-20T07:59:39.467Z,19.08
2018-07-20T08:02:08.923Z,19.06
2018-07-20T08:04:38.368Z,19.30
2018-07-20T08:07:07.789Z,19.20
2018-07-20T08:09:37.171Z,19.26
2018-07-20T08:12:07.699Z,19.44
2018-07-20T08:14:38.213Z,19.40
2018-07-20T08:17:08.418Z,19.50
2018-07-20T08:19:38.729Z,19.32
2018-07-20T08:22:08.135Z,19.58
2018-07-20T08:24:37.978Z,19.75
2018-07-20T08:27:07.433Z,19.78
2018-07-20T08:29:36.909Z,19.79
2018-07-20T08:32:07.676Z,19.68
2018-07-20T08:34:37.011Z,19.75
2018-07-20T08:37:07.755Z,19.69
2018-07-20T08:39:37.120Z,19.67
2018-07-20T08:42:06.500Z,19.97
2018-07-20T08:44:35.989Z,20.16
2018-07-20T08:47:05.329Z,20.20
2018-07-20T08:49:34.730Z,20.29
2018-07-20T08:52:04.214Z,20.08
2018-07-20T08:54:33.679Z,20.09
2018-07-20T08:57:03.101Z,20.03
2018-07-20T08:59:32.580Z,20.07
2018-07-20T09:02:03.037Z,20.24
2018-07-20T09:04:33.033Z,20.39
2018-07-20T09:07:03.164Z,20.56
2018-07-20T09:09:32.867Z,20.49
2018-07-20T09:12:02.399Z,20.51
2018-07-20T09:14:32.287Z,20.46
2018-07-20T09:17:04.317Z,20.82
2018-07-20T09:19:33.686Z,20.94
2018-07-20T09:22:03.329Z,20.81
2018-07-20T09:24:34.390Z,20.78
2018-07-20T09:27:03.862Z,20.92
2018-07-20T09:29:34.695Z,21.19
2018-07-20T09:32:05.242Z,21.25
2018-07-20T09:34:34.906Z,21.17
2018-07-20T09:37:04.681Z,21.09
2018-07-20T09:39:34.536Z,21.26
2018-07-20T09:42:04.937Z,21.35
2018-07-20T09:44:34.374Z,21.31
2018-07-20T09:47:04.037Z,21.39
2018-07-20T09:49:34.286Z,21.39
2018-07-20T09:52:04.105Z,21.73
2018-07-20T09:54:33.573Z,21.78
2018-07-20T09:57:03.258Z,21.64
2018-07-20T09:59:32.684Z,21.57
2018-07-20T10:02:02.186Z,21.46
2018-07-20T10:04:31.746Z,21.44
2018-07-20T10:07:02.157Z,21.48
2018-07-20T10:09:31.692Z,21.58
2018-07-20T10:12:01.200Z,21.56
2018-07-20T10:14:30.384Z,21.70
2018-07-20T10:17:00.943Z,21.98
2018-07-20T10:19:30.394Z,22.15
2018-07-20T10:22:00.252Z,22.17
2018-07-20T10:24:29.834Z,22.29
2018-07-20T10:26:59.894Z,22.46
2018-07-20T10:29:29.304Z,22.48
2018-07-20T10:31:59.095Z,22.46
2018-07-20T10:34:28.453Z,22.29
2018-07-20T10:36:59.269Z,22.18
2018-07-20T10:39:29.732Z,22.26
2018-07-20T10:42:00.051Z,22.50
2018-07-20T10:44:29.462Z,22.51
2018-07-20T10:46:59.926Z,22.95
2018-07-20T10:49:29.522Z,23.06
2018-07-20T10:51:59.016Z,22.94
2018-07-20T10:54:28.560Z,22.92
2018-07-20T10:57:00.062Z,23.03
2018-07-20T10:59:29.901Z,23.29
2018-07-20T11:02:01.003Z,23.09
2018-07-20T11:04:30.449Z,23.10
2018-07-20T11:07:00.444Z,23.56
2018-07-20T11:09:29.777Z,23.53
2018-07-20T11:11:59.504Z,23.73
2018-07-20T11:14:29.467Z,23.65
2018-07-20T11:16:59.156Z,23.83
2018-07-20T11:19:29.847Z,23.57
2018-07-20T11:21:59.337Z,23.74
2018-07-20T11:24:28.981Z,23.35
2018-07-20T11:26:59.133Z,23.50
2018-07-20T11:29:28.667Z,23.69
2018-07-20T11:31:58.097Z,23.92
2018-07-20T11:34:28.336Z,24.10
2018-07-20T11:36:59.201Z,24.29
2018-07-20T11:39:29.260Z,23.82
2018-07-20T11:42:00.263Z,24.00
2018-07-20T11:44:34.020Z,24.11
2018-07-20T11:47:03.735Z,24.24
2018-07-20T11:49:33.658Z,24.52
2018-07-20T11:52:07.153Z,24.67
2018-07-20T11:54:36.621Z,24.71
2018-07-20T11:57:06.018Z,25.03
2018-07-20T11:59:35.729Z,25.11
2018-07-20T12:02:05.147Z,25.23
2018-07-20T12:04:34.638Z,25.36
2018-07-20T12:07:04.312Z,25.66
2018-07-20T12:09:33.814Z,25.95
2018-07-20T12:12:04.233Z,26.13
2018-07-20T12:14:33.837Z,26.33
2018-07-20T12:17:03.197Z,26.42
2018-07-20T12:19:32.699Z,26.32
2018-07-20T12:22:02.139Z,26.62
2018-07-20T12:24:31.564Z,26.78
2018-07-20T12:27:01.146Z,26.95
2018-07-20T12:29:30.522Z,27.00
2018-07-20T12:32:00.788Z,27.81
2018-07-20T12:34:30.269Z,28.52
2018-07-20T12:37:01.046Z,29.89
2018-07-20T12:39:32.466Z,30.98
2018-07-20T12:42:02.044Z,31.15
2018-07-20T12:44:31.625Z,31.48
2018-07-20T12:47:01.059Z,31.29
2018-07-20T12:49:30.911Z,30.97
2018-07-20T12:52:00.250Z,31.09
2018-07-20T12:54:30.233Z,31.38
2018-07-20T12:56:59.602Z,31.99
2018-07-20T12:59:29.037Z,32.47
2018-07-20T13:01:59.602Z,32.47
2018-07-20T13:04:29.725Z,31.54
2018-07-20T13:06:59.097Z,31.31
2018-07-20T13:09:29.309Z,32.54
2018-07-20T13:11:58.789Z,33.80
2018-07-20T13:14:29.122Z,35.05
2018-07-20T13:16:59.470Z,35.34
2018-07-20T13:19:30.017Z,34.15
2018-07-20T13:21:59.508Z,33.58
2018-07-20T13:24:30.874Z,34.10
2018-07-20T13:27:01.399Z,35.34
2018-07-20T13:29:30.831Z,35.14
2018-07-20T13:32:00.262Z,35.12
2018-07-20T13:34:29.667Z,35.35
2018-07-20T13:36:59.133Z,34.12
2018-07-20T13:39:29.019Z,33.94
2018-07-20T13:41:58.677Z,35.67
2018-07-20T13:44:28.162Z,34.57
2018-07-20T13:46:57.574Z,35.23
2018-07-20T13:49:27.063Z,35.52
2018-07-20T13:51:56.477Z,35.19
2018-07-20T13:54:26.518Z,36.01
2018-07-20T13:56:56.058Z,35.40
2018-07-20T13:59:25.609Z,34.28
2018-07-20T14:01:55.048Z,34.64
2018-07-20T14:04:25.342Z,34.40
2018-07-20T14:06:55.501Z,35.09
2018-07-20T14:09:25.212Z,34.84
2018-07-20T14:11:59.537Z,34.99
2018-07-20T14:18:00.251Z,35.45
2018-07-20T14:20:39.412Z,37.43
2018-07-20T14:28:38.665Z,36.41
2018-07-20T14:31:17.144Z,35.18
2018-07-20T14:34:11.059Z,36.31
2018-07-20T14:36:49.079Z,37.10
2018-07-20T14:39:19.536Z,35.54
2018-07-20T14:41:48.906Z,37.52
2018-07-20T14:44:20.049Z,37.78
2018-07-20T14:46:49.470Z,37.40
2018-07-20T14:49:19.271Z,36.52
2018-07-20T14:51:48.761Z,35.11
2018-07-20T14:54:18.273Z,34.11
2018-07-20T14:56:48.112Z,35.18
2018-07-20T14:59:17.543Z,34.61
2018-07-20T15:01:47.250Z,36.51
2018-07-20T15:04:16.742Z,36.29
2018-07-20T15:06:46.262Z,37.09
2018-07-20T15:09:15.644Z,36.49
2018-07-20T15:11:45.662Z,35.91
2018-07-20T15:14:15.062Z,36.03
2018-07-20T15:16:44.477Z,34.40
2018-07-20T15:19:14.989Z,34.84
2018-07-20T15:21:44.734Z,33.06
2018-07-20T15:24:14.227Z,32.84
2018-07-20T15:26:43.745Z,32.42
2018-07-20T15:29:13.225Z,31.74
2018-07-20T15:31:42.640Z,32.41
2018-07-20T15:34:12.569Z,33.51
2018-07-20T15:36:41.937Z,33.43
2018-07-20T15:39:12.518Z,32.44
2018-07-20T15:41:41.871Z,31.67
2018-07-20T15:44:11.833Z,31.57
2018-07-20T15:46:41.433Z,30.48
2018-07-20T15:49:10.747Z,30.07
2018-07-20T15:53:35.206Z,29.56
2018-07-20T15:54:11.205Z,30.00
2018-07-20T15:56:40.719Z,30.06
2018-07-20T15:59:10.150Z,30.62
2018-07-20T16:01:39.687Z,30.69
2018-07-20T16:04:09.290Z,31.41
2018-07-20T16:06:39.081Z,32.39
2018-07-20T16:09:11.772Z,33.03
2018-07-20T16:11:41.438Z,32.74
2018-07-20T16:14:13.705Z,32.54
2018-07-20T16:16:43.145Z,32.57
2018-07-20T16:19:13.545Z,32.37
2018-07-20T16:21:43.045Z,31.95
2018-07-20T16:24:12.498Z,31.64
2018-07-20T16:26:41.909Z,32.22
2018-07-20T16:29:14.430Z,33.05
2018-07-20T16:31:43.873Z,32.90
2018-07-20T16:34:14.152Z,33.83
2018-07-20T16:36:44.402Z,33.67
2018-07-20T16:39:14.266Z,33.74
2018-07-20T16:41:43.935Z,33.71
2018-07-20T16:44:13.405Z,34.74
2018-07-20T16:46:42.565Z,33.93
2018-07-20T16:49:11.966Z,33.04
2018-07-20T16:51:43.304Z,32.89
2018-07-20T16:54:13.637Z,32.82
2018-07-20T16:56:43.454Z,33.04
2018-07-20T16:59:13.188Z,34.18
2018-07-20T17:01:46.690Z,34.06
2018-07-20T17:04:16.187Z,32.55
2018-07-20T17:06:46.102Z,32.09
2018-07-20T17:09:16.152Z,32.39
2018-07-20T17:11:46.249Z,31.36
2018-07-20T17:14:15.674Z,31.53
2018-07-20T17:16:45.772Z,31.29
2018-07-20T17:19:15.915Z,30.93
2018-07-20T17:21:46.514Z,30.62
2018-07-20T17:24:16.270Z,29.39
2018-07-20T17:26:46.759Z,29.63
2018-07-20T17:29:22.267Z,29.11
2018-07-20T17:31:52.641Z,28.82
2018-07-20T17:34:22.048Z,28.69
2018-07-20T17:36:51.462Z,28.47
2018-07-20T17:39:20.980Z,28.63
2018-07-20T17:41:50.131Z,27.66
2018-07-20T17:44:19.558Z,27.75
2018-07-20T17:46:49.042Z,27.67
2018-07-20T17:49:23.181Z,27.25
2018-07-20T17:51:52.562Z,27.23
2018-07-20T17:54:23.062Z,27.17
2018-07-20T17:56:52.502Z,27.03
2018-07-20T17:59:22.125Z,26.78
2018-07-20T18:01:51.608Z,26.92
2018-07-20T18:04:22.494Z,26.94
2018-07-20T18:06:53.617Z,26.52
2018-07-20T18:09:23.414Z,25.98
2018-07-20T18:11:52.747Z,25.80
2018-07-20T18:14:22.557Z,25.73
2018-07-20T18:16:52.145Z,25.52
2018-07-20T18:19:21.538Z,25.45
2018-07-20T18:21:51.229Z,25.32
2018-07-20T18:24:21.352Z,24.87
2018-07-20T18:26:50.809Z,24.74
2018-07-20T18:29:20.197Z,24.36
2018-07-20T18:31:49.887Z,24.15
2018-07-20T18:34:20.038Z,24.04
2018-07-20T18:36:49.638Z,23.94
2018-07-20T18:39:19.029Z,23.80
2018-07-20T18:41:48.433Z,23.58
2018-07-20T18:44:17.849Z,23.55
2018-07-20T18:46:47.653Z,23.42
2018-07-20T18:49:18.628Z,23.30
2018-07-20T18:51:47.922Z,23.24
2018-07-20T18:54:17.104Z,23.03
2018-07-20T18:56:46.483Z,23.03
2018-07-20T18:59:16.139Z,22.94
2018-07-20T19:01:45.447Z,22.73
2018-07-20T19:04:14.785Z,22.77
2018-07-20T19:06:45.113Z,22.63
2018-07-20T19:09:14.514Z,22.76
2018-07-20T19:11:44.780Z,22.53
2018-07-20T19:14:14.258Z,22.51
2018-07-20T19:16:43.802Z,22.38
2018-07-20T19:19:13.291Z,22.25
2018-07-20T19:21:42.707Z,22.29
2018-07-20T19:24:12.478Z,22.26
2018-07-20T19:26:42.034Z,22.09
2018-07-20T19:29:11.518Z,21.91
2018-07-20T19:31:42.331Z,21.82
2018-07-20T19:34:11.870Z,21.72
2018-07-20T19:36:41.259Z,21.68
2018-07-20T19:39:11.833Z,21.63
2018-07-20T19:41:41.237Z,21.50
2018-07-20T19:44:13.201Z,21.45
2018-07-20T19:46:43.497Z,21.30
2018-07-20T19:49:12.969Z,21.23
2018-07-20T19:51:42.386Z,21.11
2018-07-20T19:54:12.029Z,21.15
2018-07-20T19:56:42.754Z,20.89
2018-07-20T19:59:12.143Z,20.96
2018-07-20T20:01:42.361Z,20.88
2018-07-20T20:04:11.787Z,20.86
2018-07-20T20:06:41.198Z,20.72
2018-07-20T20:09:12.015Z,20.68
2018-07-20T20:11:41.644Z,20.64
2018-07-20T20:14:11.765Z,20.61
2018-07-20T20:16:41.500Z,20.67
2018-07-20T20:19:11.413Z,20.38
2018-07-20T20:21:41.333Z,20.39
2018-07-20T20:24:10.816Z,20.34
2018-07-20T20:26:40.856Z,20.27
2018-07-20T20:29:10.377Z,20.20
2018-07-20T20:31:39.842Z,20.17
2018-07-20T20:34:09.459Z,20.10
2018-07-20T20:36:39.057Z,19.99
2018-07-20T20:39:12.007Z,19.90
2018-07-20T20:41:41.889Z,19.94
2018-07-20T20:44:12.430Z,19.74
2018-07-20T20:46:41.881Z,19.62
2018-07-20T20:49:12.305Z,19.65
2018-07-20T20:51:41.969Z,19.50
2018-07-20T20:54:11.431Z,19.41
2018-07-20T20:56:40.909Z,19.35
2018-07-20T20:59:10.355Z,19.27
2018-07-20T21:01:40.375Z,19.35
2018-07-20T21:04:09.885Z,19.26
2018-07-20T21:06:39.262Z,19.34
2018-07-20T21:09:09.727Z,19.23
2018-07-20T21:11:40.137Z,19.27
2018-07-20T21:14:09.667Z,19.28
2018-07-20T21:16:39.383Z,19.18
2018-07-20T21:19:09.127Z,19.08
2018-07-20T21:21:39.207Z,18.99
2018-07-20T21:24:09.334Z,18.82
2018-07-20T21:26:39.837Z,18.85
2018-07-20T21:29:09.351Z,18.81
2018-07-20T21:31:38.810Z,18.77
2018-07-20T21:34:08.558Z,18.73
2018-07-20T21:36:38.072Z,18.70
2018-07-20T21:39:12.042Z,18.69
2018-07-20T21:41:42.926Z,18.72
2018-07-20T21:44:13.438Z,18.74
2018-07-20T21:46:42.857Z,18.74
2018-07-20T21:49:12.289Z,18.66
2018-07-20T21:51:43.211Z,18.52
2018-07-20T21:54:12.614Z,18.49
2018-07-20T21:56:42.387Z,18.26
2018-07-20T21:59:11.825Z,18.02
2018-07-20T22:01:41.224Z,17.85
2018-07-20T22:04:10.787Z,17.74
2018-07-20T22:06:40.171Z,17.67
2018-07-20T22:09:11.129Z,17.55
2018-07-20T22:11:41.612Z,17.58
2018-07-20T22:14:23.287Z,17.66
2018-07-20T22:16:52.709Z,17.70
2018-07-20T22:19:23.402Z,17.68
2018-07-20T22:21:52.971Z,17.47
2018-07-20T22:24:22.452Z,17.18
2018-07-20T22:26:51.990Z,17.02
2018-07-20T22:29:21.558Z,16.97
2018-07-20T22:31:51.167Z,17.03
2018-07-20T22:34:20.564Z,17.09
2018-07-20T22:36:50.099Z,16.84
2018-07-20T22:39:19.560Z,16.72
2018-07-20T22:41:49.249Z,16.77
2018-07-20T22:44:18.624Z,16.73
2018-07-20T22:46:52.895Z,16.74
2018-07-20T22:52:01.868Z,16.94
2018-07-20T22:54:31.377Z,17.06
2018-07-20T22:57:00.828Z,17.15
2018-07-20T22:59:30.309Z,17.20
2018-07-20T23:01:59.847Z,17.15
2018-07-20T23:04:29.238Z,17.06
2018-07-20T23:06:59.209Z,17.01
2018-07-20T23:09:28.610Z,16.82
2018-07-20T23:11:57.949Z,16.74
2018-07-20T23:14:27.608Z,16.70
2018-07-20T23:16:57.076Z,16.75
2018-07-20T23:19:26.514Z,16.75
2018-07-20T23:21:56.568Z,16.75
2018-07-20T23:24:26.060Z,16.86
2018-07-20T23:26:55.542Z,16.90
2018-07-20T23:29:24.887Z,16.91
2018-07-20T23:31:54.238Z,16.90
2018-07-20T23:34:24.603Z,16.95
2018-07-20T23:36:54.206Z,16.80
2018-07-20T23:39:23.714Z,16.71
2018-07-20T23:41:53.098Z,16.66
2018-07-20T23:44:22.797Z,16.53
2018-07-20T23:46:52.161Z,16.44
2018-07-20T23:49:21.489Z,16.40
2018-07-20T23:51:50.948Z,16.33
2018-07-20T23:54:20.435Z,16.27
2018-07-20T23:56:49.834Z,16.29
2018-07-20T23:59:19.340Z,16.27
